Time;durP1;ratioP1;P1;durP2;ratioP2;P2;SDS_P1;SDS_P2;PMS_P1;PMS_P2;Temp;Humidity;BMP_temperature;BMP_pressure;BME280_temperature;BME280_humidity;BME280_pressure;Samples;Min_cycle;Max_cycle;Signal;HPM_P1;HPM_P2
2021/03/13 00:00:49;;;;;;;15.68;3.22;;;;;;;3.33;65.68;99278.75;124480;1112;23083;-58
2021/03/13 00:03:19;;;;;;;14.65;3.10;;;;;;;3.35;66.01;99282.60;124338;1112;23086;-58
2021/03/13 00:05:48;;;;;;;14.70;3.27;;;;;;;3.39;66.72;99272.20;124473;1112;23113;-61
2021/03/13 00:08:18;;;;;;;17.10;3.17;;;;;;;3.42;66.12;99270.50;124981;1111;26446;-59
2021/03/13 00:10:48;;;;;;;17.85;4.22;;;;;;;3.44;66.25;99268.83;124947;1111;24610;-59
2021/03/13 00:13:18;;;;;;;17.20;4.90;;;;;;;3.43;65.83;99274.80;124884;1112;23049;-58
2021/03/13 00:15:47;;;;;;;17.27;5.00;;;;;;;3.43;66.49;99274.80;124849;1113;23021;-59
2021/03/13 00:18:16;;;;;;;20.37;4.80;;;;;;;3.44;65.92;99274.34;125028;1110;24609;-59
2021/03/13 00:20:48;;;;;;;21.63;5.80;;;;;;;3.44;66.37;99276.33;124828;1112;24550;-58
2021/03/13 00:23:17;;;;;;;19.40;4.30;;;;;;;3.45;65.88;99273.14;124876;1111;26049;-56
2021/03/13 00:25:46;;;;;;;13.33;3.30;;;;;;;3.46;66.02;99266.38;124965;1111;26411;-60
2021/03/13 00:28:16;;;;;;;16.03;4.50;;;;;;;3.47;65.94;99262.41;124844;1110;23013;-58
2021/03/13 00:30:48;;;;;;;21.67;6.17;;;;;;;3.48;66.24;99257.64;124860;1112;23071;-60
2021/03/13 00:33:18;;;;;;;19.17;6.80;;;;;;;3.46;66.14;99249.83;124790;1110;23080;-55
2021/03/13 00:35:50;;;;;;;23.00;9.37;;;;;;;3.45;66.04;99251.06;124892;1110;27813;-58
2021/03/13 00:38:19;;;;;;;19.60;6.93;;;;;;;3.45;66.34;99242.02;124942;1110;23248;-60
2021/03/13 00:40:49;;;;;;;20.57;7.70;;;;;;;3.44;66.70;99244.00;125040;1110;23149;-60
2021/03/13 00:43:19;;;;;;;20.27;8.20;;;;;;;3.45;66.25;99233.73;125015;1111;23444;-57
2021/03/13 00:45:48;;;;;;;24.97;9.97;;;;;;;3.43;66.42;99236.95;124908;1111;23059;-58
2021/03/13 00:48:18;;;;;;;20.27;8.55;;;;;;;3.44;66.77;99234.95;125056;1110;26431;-57
2021/03/13 00:50:47;;;;;;;16.43;5.30;;;;;;;3.45;66.38;99242.78;124832;1112;22978;-58
2021/03/13 00:53:17;;;;;;;17.33;3.60;;;;;;;3.46;66.60;99229.73;125023;1110;27336;-58
2021/03/13 00:55:46;;;;;;;13.20;2.70;;;;;;;3.45;66.20;99234.51;124958;1110;23069;-58
2021/03/13 00:58:15;;;;;;;12.20;2.20;;;;;;;3.47;66.83;99228.53;125225;1113;22987;-58
2021/03/13 01:00:44;;;;;;;17.90;2.45;;;;;;;3.44;66.89;99219.16;124874;1111;23337;-60
2021/03/13 01:03:14;;;;;;;13.87;1.93;;;;;;;3.42;66.29;99221.61;125069;1112;22956;-58
2021/03/13 01:05:43;;;;;;;11.57;1.80;;;;;;;3.40;66.96;99218.54;124968;1111;26107;-58
2021/03/13 01:08:12;;;;;;;13.73;2.43;;;;;;;3.38;66.64;99215.47;124816;1110;28521;-59
2021/03/13 01:10:41;;;;;;;14.77;2.20;;;;;;;3.38;67.01;99209.95;124889;1113;23040;-59
2021/03/13 01:13:10;;;;;;;12.90;2.23;;;;;;;3.37;66.66;99213.17;124909;1110;23752;-60
2021/03/13 01:15:39;;;;;;;15.73;2.47;;;;;;;3.39;66.75;99211.50;124882;1112;23009;-58
2021/03/13 01:18:09;;;;;;;10.03;1.73;;;;;;;3.38;66.54;99204.44;124985;1112;23016;-60
2021/03/13 01:20:38;;;;;;;10.27;1.80;;;;;;;3.38;66.37;99206.42;124893;1111;23223;-59
2021/03/13 01:23:10;;;;;;;14.03;2.73;;;;;;;3.38;66.76;99209.95;124965;1112;23100;-58
2021/03/13 01:25:39;;;;;;;12.90;2.60;;;;;;;3.39;66.99;99194.17;124886;1112;23113;-64
2021/03/13 01:28:09;;;;;;;15.03;2.87;;;;;;;3.43;67.20;99190.05;124875;1110;24384;-61
2021/03/13 01:30:41;;;;;;;12.63;2.60;;;;;;;3.46;67.16;99189.12;124862;1112;23231;-60
2021/03/13 01:33:11;;;;;;;13.17;2.43;;;;;;;3.50;66.69;99186.98;124834;1112;23226;-60
2021/03/13 01:35:39;;;;;;;13.15;2.45;;;;;;;3.54;67.34;99184.10;125062;1112;24626;-58
2021/03/13 01:38:08;;;;;;;13.77;3.03;;;;;;;3.58;66.87;99179.95;124892;1113;23016;-59
2021/03/13 01:40:39;;;;;;;15.20;3.30;;;;;;;3.64;66.86;99178.12;124834;1110;23186;-65
2021/03/13 01:43:08;;;;;;;15.07;2.97;;;;;;;3.71;66.80;99177.83;125144;1111;23126;-59
2021/03/13 01:45:37;;;;;;;10.90;2.40;;;;;;;3.77;67.00;99176.00;124869;1110;27518;-59
2021/03/13 01:48:08;;;;;;;9.17;2.20;;;;;;;3.83;66.68;99168.64;125240;1112;26440;-58
2021/03/13 01:50:38;;;;;;;9.87;1.63;;;;;;;3.87;66.65;99158.20;124869;1112;23016;-58
2021/03/13 01:53:06;;;;;;;7.33;1.20;;;;;;;3.92;66.43;99160.38;125008;1111;23142;-59
2021/03/13 01:55:36;;;;;;;9.00;1.40;;;;;;;3.98;66.46;99172.34;124874;1111;24450;-58
2021/03/13 01:58:06;;;;;;;7.12;1.15;;;;;;;4.06;66.73;99159.75;124909;1113;25947;-58
2021/03/13 02:00:34;;;;;;;5.57;0.80;;;;;;;4.10;66.11;99156.83;124896;1110;23122;-60
2021/03/13 02:03:03;;;;;;;5.10;0.80;;;;;;;4.15;66.36;99156.22;124867;1110;23004;-60
2021/03/13 02:05:38;;;;;;;8.93;1.00;;;;;;;4.20;66.60;99158.34;124894;1110;23368;-59
2021/03/13 02:08:17;;;;;;;5.80;0.90;;;;;;;4.27;66.12;99162.80;124959;1112;23005;-60
2021/03/13 02:10:56;;;;;;;5.80;1.00;;;;;;;4.35;66.21;99150.19;124998;1112;26485;-59
2021/03/13 02:13:30;;;;;;;4.22;0.70;;;;;;;4.43;66.24;99145.91;125100;1111;24695;-59
2021/03/13 02:16:10;;;;;;;3.67;0.70;;;;;;;4.51;65.95;99141.59;124846;1111;23076;-61
2021/03/13 02:19:02;;;;;;;5.62;0.70;;;;;;;4.58;65.83;99138.48;124856;1112;23083;-59
2021/03/13 02:21:36;;;;;;;6.05;0.90;;;;;;;4.64;65.94;99139.38;124911;1112;23072;-59
2021/03/13 02:24:15;;;;;;;5.30;0.70;;;;;;;4.69;65.47;99142.30;124844;1112;23048;-59
2021/03/13 02:26:59;;;;;;;8.30;0.85;;;;;;;4.73;65.19;99144.89;125084;1111;27399;-60
2021/03/13 02:29:40;;;;;;;4.20;0.60;;;;;;;4.75;65.75;99139.66;124833;1111;23097;-61
2021/03/13 02:32:17;;;;;;;8.10;0.80;;;;;;;4.74;65.52;99147.19;125150;1112;23027;-59
2021/03/13 02:34:49;;;;;;;3.20;0.67;;;;;;;4.74;65.48;99138.12;124867;1112;27341;-61
2021/03/13 02:37:22;;;;;;;9.67;1.10;;;;;;;4.73;65.60;99134.61;124836;1112;23016;-59
2021/03/13 02:39:55;;;;;;;6.90;0.73;;;;;;;4.73;65.71;99134.61;124977;1111;22994;-59
2021/03/13 02:42:26;;;;;;;7.93;0.70;;;;;;;4.72;65.90;99135.83;124822;1110;24611;-59
2021/03/13 02:44:54;;;;;;;;;;;;;;;4.71;65.76;99136.30;124979;1112;22994;-59
2021/03/13 02:47:26;;;;;;;6.30;1.07;;;;;;;4.68;65.66;99149.05;124841;1112;21502;-60
2021/03/13 02:49:56;;;;;;;5.75;1.10;;;;;;;4.66;65.93;99134.92;124833;1112;23108;-59
2021/03/13 02:52:28;;;;;;;8.90;1.03;;;;;;;4.65;66.00;99138.17;124868;1112;23024;-59
2021/03/13 02:55:00;;;;;;;5.80;1.03;;;;;;;4.63;65.90;99133.11;124956;1110;23026;-57
2021/03/13 02:57:31;;;;;;;6.13;1.00;;;;;;;4.63;66.06;99135.10;124945;1111;23083;-58
2021/03/13 03:00:01;;;;;;;7.12;1.10;;;;;;;4.61;65.83;99126.51;125008;1112;23070;-59
2021/03/13 03:02:30;;;;;;;7.23;0.90;;;;;;;4.62;66.27;99131.56;124892;1111;23023;-58
2021/03/13 03:05:02;;;;;;;4.87;0.90;;;;;;;4.65;66.12;99121.58;124922;1111;26431;-60
2021/03/13 03:07:32;;;;;;;6.40;0.70;;;;;;;4.72;65.91;99137.81;124822;1112;23016;-59
2021/03/13 03:10:02;;;;;;;11.83;1.12;;;;;;;4.81;65.63;99141.34;124877;1110;23080;-61
2021/03/13 03:12:31;;;;;;;7.80;0.80;;;;;;;4.90;65.70;99146.07;124889;1111;23026;-57
2021/03/13 03:15:02;;;;;;;5.97;1.00;;;;;;;5.02;65.69;99149.85;124799;1112;26418;-61
2021/03/13 03:17:29;;;;;;;;;;;;;;;5.14;66.17;99154.41;128430;1111;22809;-60
2021/03/13 03:20:00;;;;;;;7.03;0.60;;;;;;;5.20;66.06;99149.76;126048;1111;21547;-57
2021/03/13 03:22:31;;;;;;;7.08;0.80;;;;;;;5.25;66.48;99157.44;124909;1111;27298;-56
2021/03/13 03:25:00;;;;;;;5.85;0.60;;;;;;;5.29;66.88;99167.10;124934;1111;23079;-59
2021/03/13 03:27:29;;;;;;;7.20;0.60;;;;;;;5.31;66.87;99177.69;124780;1110;23017;-56
2021/03/13 03:29:58;;;;;;;9.20;0.80;;;;;;;5.30;66.83;99173.38;125008;1111;23070;-57
2021/03/13 03:32:27;;;;;;;10.17;1.00;;;;;;;5.30;67.17;99174.16;124848;1109;23154;-56
2021/03/13 03:34:56;;;;;;;7.13;0.73;;;;;;;5.29;67.57;99169.09;125165;1111;23149;-55
2021/03/13 03:37:26;;;;;;;6.77;0.63;;;;;;;5.27;67.24;99177.87;124825;1111;23069;-56
2021/03/13 03:39:55;;;;;;;6.40;0.70;;;;;;;5.25;67.47;99169.27;124939;1110;23024;-56
2021/03/13 03:42:24;;;;;;;5.60;0.73;;;;;;;5.23;67.52;99168.20;124878;1112;23071;-59
2021/03/13 03:44:56;;;;;;;7.17;0.90;;;;;;;5.21;67.53;99179.75;124971;1111;23079;-56
2021/03/13 03:47:25;;;;;;;5.00;0.80;;;;;;;5.19;67.65;99170.37;124892;1110;26034;-57
2021/03/13 03:49:56;;;;;;;3.40;0.60;;;;;;;5.18;67.64;99161.30;124830;1113;23071;-57
2021/03/13 03:52:26;;;;;;;6.05;0.75;;;;;;;5.19;67.28;99162.08;124897;1110;23080;-58
2021/03/13 03:54:56;;;;;;;5.70;0.73;;;;;;;5.19;66.97;99171.15;124871;1111;23027;-55
2021/03/13 03:57:25;;;;;;;7.08;0.95;;;;;;;5.20;67.35;99161.59;124922;1111;22950;-57
2021/03/13 03:59:55;;;;;;;7.33;1.00;;;;;;;5.22;67.24;99163.89;124897;1110;23027;-58
2021/03/13 04:02:26;;;;;;;7.35;0.90;;;;;;;5.22;67.22;99164.66;124849;1111;23024;-57
2021/03/13 04:04:56;;;;;;;4.80;0.80;;;;;;;5.22;67.12;99167.44;124832;1110;26174;-58
2021/03/13 04:07:25;;;;;;;8.27;1.07;;;;;;;5.23;67.10;99159.91;124938;1110;23073;-56
2021/03/13 04:09:55;;;;;;;7.83;1.00;;;;;;;5.22;67.20;99161.90;124963;1110;23021;-56
2021/03/13 04:12:25;;;;;;;5.63;1.30;;;;;;;5.22;67.33;99163.89;124984;1112;23005;-57
2021/03/13 04:14:54;;;;;;;9.50;1.10;;;;;;;5.23;67.15;99166.21;124782;1112;23080;-55
2021/03/13 04:17:24;;;;;;;8.90;1.40;;;;;;;5.23;67.30;99165.44;124838;1112;23016;-56
2021/03/13 04:19:54;;;;;;;6.70;1.00;;;;;;;5.23;67.34;99174.52;124851;1110;23014;-56
2021/03/13 04:22:25;;;;;;;6.15;0.80;;;;;;;5.23;67.19;99176.50;124867;1112;23186;-56
2021/03/13 04:24:54;;;;;;;;;;;;;;;5.23;67.31;99173.73;124996;1110;23084;-57
2021/03/13 04:27:23;;;;;;;5.20;0.97;;;;;;;5.20;67.14;99169.90;124929;1112;23095;-58
2021/03/13 04:29:52;;;;;;;5.03;0.77;;;;;;;5.21;66.96;99174.22;124847;1112;23794;-58
2021/03/13 04:32:23;;;;;;;7.43;0.90;;;;;;;5.20;67.13;99182.96;125127;1112;23222;-60
2021/03/13 04:34:54;;;;;;;5.40;0.90;;;;;;;5.18;66.98;99191.73;125046;1111;23008;-59
2021/03/13 04:37:24;;;;;;;7.70;0.80;;;;;;;5.16;67.26;99182.37;124818;1112;25975;-58
2021/03/13 04:39:55;;;;;;;4.28;0.80;;;;;;;5.13;67.04;99186.83;124909;1112;23076;-59
2021/03/13 04:42:24;;;;;;;5.30;0.90;;;;;;;5.12;67.18;99170.70;124959;1111;22942;-59
2021/03/13 04:44:53;;;;;;;5.03;1.00;;;;;;;5.08;67.22;99167.34;124918;1111;23078;-60
2021/03/13 04:47:23;;;;;;;4.17;1.00;;;;;;;5.05;67.30;99171.80;124731;1111;23220;-59
2021/03/13 04:49:53;;;;;;;4.37;0.83;;;;;;;5.02;67.63;99177.52;124848;1112;26431;-59
2021/03/13 04:52:22;;;;;;;7.97;1.07;;;;;;;4.98;67.27;99174.92;124982;1110;23076;-60
2021/03/13 04:54:51;;;;;;;4.97;1.10;;;;;;;4.94;67.26;99175.06;124752;1111;26088;-58
2021/03/13 04:57:20;;;;;;;7.17;1.20;;;;;;;4.90;67.65;99166.17;124831;1112;23222;-57
2021/03/13 04:59:49;;;;;;;7.73;1.30;;;;;;;4.88;67.72;99173.42;124883;1110;24822;-58
2021/03/13 05:02:19;;;;;;;7.60;1.20;;;;;;;4.85;67.56;99171.58;124859;1111;27905;-60
2021/03/13 05:04:48;;;;;;;5.60;1.03;;;;;;;4.81;67.31;99168.98;124836;1111;24817;-57
2021/03/13 05:07:17;;;;;;;7.83;1.43;;;;;;;4.77;67.83;99164.84;124921;1111;23254;-60
2021/03/13 05:09:48;;;;;;;7.10;0.90;;;;;;;4.74;67.82;99166.54;124656;1111;23049;-57
2021/03/13 05:12:17;;;;;;;8.87;1.13;;;;;;;4.71;67.75;99166.71;124379;1109;23002;-58
2021/03/13 05:14:48;;;;;;;7.30;1.27;;;;;;;4.68;67.99;99175.92;124853;1111;23022;-59
2021/03/13 05:17:17;;;;;;;9.27;1.20;;;;;;;4.64;67.99;99175.31;124927;1111;23178;-60
2021/03/13 05:19:46;;;;;;;8.57;1.37;;;;;;;4.61;67.99;99179.03;124857;1110;28477;-57
2021/03/13 05:22:16;;;;;;;7.07;1.33;;;;;;;4.58;68.23;99182.70;124816;1110;23012;-60
2021/03/13 05:24:45;;;;;;;5.60;1.00;;;;;;;4.55;67.75;99181.62;124862;1110;23001;-58
2021/03/13 05:27:14;;;;;;;5.30;1.20;;;;;;;4.55;67.85;99189.18;124861;1110;23020;-58
2021/03/13 05:29:44;;;;;;;8.58;1.40;;;;;;;4.52;68.01;99185.34;125065;1111;23205;-57
2021/03/13 05:32:13;;;;;;;9.87;1.40;;;;;;;4.52;68.07;99192.86;124778;1110;23016;-55
2021/03/13 05:34:42;;;;;;;8.03;1.40;;;;;;;4.51;68.18;99188.57;125047;1110;23482;-58
2021/03/13 05:37:11;;;;;;;7.37;1.83;;;;;;;4.50;68.43;99198.08;124733;1113;23215;-58
2021/03/13 05:39:40;;;;;;;8.53;1.80;;;;;;;4.48;68.41;99195.78;124876;1111;23172;-58
2021/03/13 05:42:11;;;;;;;10.47;1.77;;;;;;;4.48;68.25;99195.02;124740;1111;24790;-60
2021/03/13 05:44:41;;;;;;;11.77;1.50;;;;;;;4.46;68.24;99200.23;124949;1111;22978;-58
2021/03/13 05:47:11;;;;;;;7.87;1.37;;;;;;;4.44;68.40;99205.45;124788;1112;24085;-60
2021/03/13 05:49:45;;;;;;;6.85;1.57;;;;;;;4.42;68.26;99197.64;124851;1111;23021;-59
2021/03/13 05:52:19;;;;;;;8.67;1.97;;;;;;;4.43;68.42;99198.41;124858;1112;25992;-61
2021/03/13 05:54:51;;;;;;;9.73;1.60;;;;;;;4.42;68.17;99202.39;124891;1112;26440;-58
2021/03/13 05:57:21;;;;;;;10.60;1.90;;;;;;;4.42;68.43;99199.63;124884;1110;23154;-57
2021/03/13 05:59:51;;;;;;;;;;;;;;;4.42;68.62;99213.45;124991;1110;27807;-61
2021/03/13 06:02:21;;;;;;;11.30;2.17;;;;;;;4.42;68.51;99207.92;124775;1110;26135;-67
2021/03/13 06:04:51;;;;;;;9.40;1.75;;;;;;;4.42;68.54;99200.41;124736;1111;23067;-62
2021/03/13 06:07:22;;;;;;;8.33;1.52;;;;;;;4.42;68.76;99211.45;124862;1112;27711;-60
2021/03/13 06:09:56;;;;;;;11.33;1.60;;;;;;;4.43;68.56;99203.94;124855;1111;27518;-61
2021/03/13 06:12:26;;;;;;;11.13;1.60;;;;;;;4.46;68.88;99203.00;124734;1111;23839;-58
2021/03/13 06:14:56;;;;;;;7.47;1.30;;;;;;;4.46;68.64;99201.01;124771;1111;23027;-60
2021/03/13 06:17:26;;;;;;;8.00;1.35;;;;;;;4.47;68.58;99208.05;124730;1111;24520;-59
2021/03/13 06:19:57;;;;;;;6.30;1.10;;;;;;;4.49;68.43;99211.13;124828;1112;25548;-60
2021/03/13 06:22:40;;;;;;;4.93;1.10;;;;;;;4.51;68.93;99207.92;124724;1110;24815;-57
2021/03/13 06:25:22;;;;;;;8.47;1.00;;;;;;;4.52;68.46;99207.45;124670;1111;23081;-59
2021/03/13 06:28:02;;;;;;;9.53;1.23;;;;;;;4.53;68.48;99214.49;124992;1112;23068;-61
2021/03/13 06:30:33;;;;;;;5.65;1.00;;;;;;;4.55;68.71;99205.77;124716;1111;23073;-58
2021/03/13 06:33:18;;;;;;;7.20;1.13;;;;;;;4.55;68.76;99211.29;124696;1111;26769;-57
2021/03/13 06:35:48;;;;;;;5.77;1.20;;;;;;;4.57;68.72;99214.36;124775;1112;27700;-59
2021/03/13 06:38:21;;;;;;;6.92;0.98;;;;;;;4.57;68.46;99208.83;124667;1112;24504;-58
2021/03/13 06:40:51;;;;;;;7.17;1.20;;;;;;;4.58;68.97;99221.41;124915;1111;27550;-60
2021/03/13 06:43:31;;;;;;;6.62;1.15;;;;;;;4.58;68.80;99218.64;124880;1110;23016;-59
2021/03/13 06:46:02;;;;;;;;;;;;;;;4.62;68.92;99217.25;124785;1112;22973;-59
2021/03/13 06:48:40;;;;;;;5.67;1.00;;;;;;;4.69;69.19;99224.47;124676;1112;21617;-58
2021/03/13 06:51:22;;;;;;;6.63;1.17;;;;;;;4.72;69.13;99221.53;124856;1111;25972;-58
2021/03/13 06:54:06;;;;;;;5.63;1.10;;;;;;;4.79;68.85;99221.22;124796;1111;26107;-60
2021/03/13 06:56:38;;;;;;;6.07;1.00;;;;;;;4.86;68.88;99217.38;124914;1111;23090;-58
2021/03/13 06:59:23;;;;;;;9.10;1.30;;;;;;;4.92;68.85;99221.04;124858;1112;23017;-58
2021/03/13 07:02:07;;;;;;;6.90;1.30;;;;;;;5.02;69.00;99222.55;124744;1111;23090;-59
2021/03/13 07:04:40;;;;;;;4.93;1.20;;;;;;;5.11;68.59;99213.45;124780;1110;23018;-60
2021/03/13 07:07:11;;;;;;;5.27;1.13;;;;;;;5.19;68.73;99215.42;124561;1110;24577;-59
2021/03/13 07:09:50;;;;;;;5.27;1.30;;;;;;;5.29;68.68;99216.14;124738;1112;23023;-58
2021/03/13 07:12:28;;;;;;;7.33;1.10;;;;;;;5.37;68.34;99225.63;124691;1110;26393;-59
2021/03/13 07:14:58;;;;;;;7.03;1.40;;;;;;;5.45;68.51;99226.82;124697;1111;23006;-59
2021/03/13 07:17:28;;;;;;;4.43;1.10;;;;;;;5.52;67.85;99230.03;124857;1110;23076;-60
2021/03/13 07:19:57;;;;;;;8.48;1.20;;;;;;;5.60;68.11;99222.14;124660;1112;27614;-58
2021/03/13 07:22:27;;;;;;;5.63;1.10;;;;;;;5.66;68.35;99221.03;124671;1111;24608;-59
2021/03/13 07:25:01;;;;;;;4.80;1.00;;;;;;;5.76;68.03;99218.96;124639;1112;23174;-61
2021/03/13 07:27:33;;;;;;;5.47;1.00;;;;;;;5.86;68.09;99214.15;124674;1111;23222;-59
2021/03/13 07:30:04;;;;;;;6.90;1.10;;;;;;;5.96;68.30;99215.64;124591;1110;23026;-61
2021/03/13 07:32:34;;;;;;;4.42;1.05;;;;;;;6.03;68.01;99204.19;124655;1110;23083;-59
2021/03/13 07:35:08;;;;;;;6.90;0.98;;;;;;;6.09;67.70;99218.91;124582;1112;23031;-61
2021/03/13 07:37:40;;;;;;;5.53;0.90;;;;;;;6.17;67.87;99215.31;124876;1112;23233;-60
2021/03/13 07:40:16;;;;;;;3.47;0.80;;;;;;;6.26;67.91;99206.94;124831;1110;26431;-59
2021/03/13 07:42:46;;;;;;;5.70;1.00;;;;;;;6.38;67.74;99213.45;124688;1112;27364;-61
2021/03/13 07:45:18;;;;;;;3.60;0.90;;;;;;;6.44;67.46;99214.31;124592;1112;27643;-60
2021/03/13 07:47:47;;;;;;;3.73;0.87;;;;;;;6.55;67.33;99217.31;124569;1111;27421;-61
2021/03/13 07:50:17;;;;;;;6.33;0.80;;;;;;;6.62;66.97;99219.69;124580;1112;23000;-59
2021/03/13 07:52:51;;;;;;;4.33;0.83;;;;;;;6.72;67.17;99206.52;124551;1110;23222;-59
2021/03/13 07:55:20;;;;;;;6.07;0.60;;;;;;;6.81;67.22;99217.50;124704;1111;27273;-60
2021/03/13 07:57:51;;;;;;;2.33;0.63;;;;;;;6.90;66.44;99220.97;124600;1111;23005;-58
2021/03/13 08:00:42;;;;;;;3.63;0.80;;;;;;;7.00;66.28;99221.62;124549;1111;27295;-58
2021/03/13 08:03:40;;;;;;;4.23;0.70;;;;;;;7.08;66.38;99214.44;124871;1111;23225;-59
2021/03/13 08:06:12;;;;;;;4.07;0.60;;;;;;;7.20;66.33;99214.13;124746;1112;23243;-61
2021/03/13 08:08:42;;;;;;;3.10;0.70;;;;;;;7.30;66.07;99214.81;124619;1112;23058;-60
2021/03/13 08:11:13;;;;;;;1.67;0.50;;;;;;;7.38;65.73;99213.16;124653;1110;23027;-60
2021/03/13 08:14:05;;;;;;;3.37;0.50;;;;;;;7.46;65.78;99205.95;124603;1111;22981;-59
2021/03/13 08:16:42;;;;;;;2.43;0.50;;;;;;;7.56;65.12;99204.58;124701;1111;24441;-59
2021/03/13 08:19:32;;;;;;;1.70;0.40;;;;;;;7.67;64.63;99204.75;124796;1111;24468;-61
2021/03/13 08:22:13;;;;;;;3.43;0.67;;;;;;;7.75;64.87;99193.98;124841;1111;24332;-62
2021/03/13 08:24:44;;;;;;;2.97;0.47;;;;;;;7.83;64.39;99197.88;124662;1112;23077;-66
2021/03/13 08:27:15;;;;;;;1.65;0.40;;;;;;;7.94;64.23;99186.91;124787;1110;23233;-63
2021/03/13 08:29:55;;;;;;;2.40;0.40;;;;;;;8.03;64.10;99183.97;124743;1110;23024;-63
2021/03/13 08:32:43;;;;;;;;;;;;;;;8.11;63.82;99185.11;124618;1111;23090;-63
2021/03/13 08:35:14;;;;;;;4.50;0.50;;;;;;;8.21;63.40;99182.94;124332;1113;21531;-63
2021/03/13 08:37:47;;;;;;;;;;;;;;;8.26;62.76;99182.25;124424;1113;23239;-64
2021/03/13 08:40:25;;;;;;;3.20;0.40;;;;;;;8.30;61.88;99189.12;124322;1114;21504;-63
2021/03/13 08:42:54;;;;;;;2.00;0.40;;;;;;;8.33;62.21;99173.48;124413;1113;23096;-66
2021/03/13 08:45:24;;;;;;;3.57;0.37;;;;;;;8.35;62.50;99171.75;124400;1113;23218;-62
2021/03/13 08:47:53;;;;;;;7.17;0.60;;;;;;;8.37;62.24;99169.24;124391;1113;23210;-61
2021/03/13 08:51:00;;;;;;;2.67;0.70;;;;;;;8.35;61.94;99168.20;124166;1113;23193;-62
2021/03/13 08:53:38;;;;;;;1.97;0.50;;;;;;;8.31;62.37;99167.65;124316;1114;23000;-62
2021/03/13 08:56:46;;;;;;;3.37;0.60;;;;;;;8.33;62.27;99159.58;124021;1114;23122;-63
2021/03/13 08:59:18;;;;;;;3.10;0.40;;;;;;;8.44;62.06;99170.83;124634;1113;25953;-62
2021/03/13 09:02:02;;;;;;;3.37;0.40;;;;;;;8.57;62.05;99180.31;124688;1113;23027;-62
2021/03/13 09:04:33;;;;;;;2.17;0.40;;;;;;;8.64;61.23;99160.41;124711;1113;23184;-62
2021/03/13 09:07:04;;;;;;;4.67;0.43;;;;;;;8.65;61.65;99147.27;124493;1114;27043;-62
2021/03/13 09:09:33;;;;;;;;;;;;;;;8.67;61.63;99161.45;125093;1113;23009;-60
2021/03/13 09:12:06;;;;;;;1.30;0.30;;;;;;;8.70;61.88;99152.88;124434;1112;21533;-58
2021/03/13 09:14:36;;;;;;;3.53;0.30;;;;;;;8.78;61.18;99144.84;124707;1111;23178;-65
2021/03/13 09:17:10;;;;;;;3.22;0.40;;;;;;;8.86;61.28;99135.55;124550;1112;23091;-60
2021/03/13 09:19:39;;;;;;;5.50;0.50;;;;;;;8.93;61.59;99129.55;124624;1112;25919;-56
2021/03/13 09:22:10;;;;;;;4.30;0.45;;;;;;;8.94;61.05;99125.49;124624;1110;23027;-60
2021/03/13 09:24:39;;;;;;;3.57;0.60;;;;;;;8.94;61.30;99125.49;124589;1111;24829;-54
2021/03/13 09:27:10;;;;;;;3.63;0.50;;;;;;;8.94;60.95;99122.70;124472;1112;23020;-56
2021/03/13 09:29:41;;;;;;;3.07;0.50;;;;;;;8.98;61.15;99127.30;124673;1112;27361;-55
2021/03/13 09:32:12;;;;;;;2.07;0.30;;;;;;;8.96;60.19;99117.41;124843;1111;23073;-58
2021/03/13 09:34:46;;;;;;;2.73;0.40;;;;;;;8.98;60.47;99122.47;124531;1112;23080;-57
2021/03/13 09:37:17;;;;;;;3.63;0.40;;;;;;;9.01;60.94;99112.38;124659;1112;24408;-58
2021/03/13 09:39:48;;;;;;;2.00;0.60;;;;;;;9.03;61.14;99120.99;124779;1111;27340;-60
2021/03/13 09:42:18;;;;;;;2.53;0.40;;;;;;;9.03;60.88;99110.63;124846;1112;25915;-55
2021/03/13 09:44:50;;;;;;;2.50;0.35;;;;;;;9.00;60.63;99116.44;124779;1112;23001;-57
2021/03/13 09:47:22;;;;;;;1.67;0.20;;;;;;;8.96;60.23;99108.29;124421;1112;23019;-60
2021/03/13 09:49:53;;;;;;;1.77;0.37;;;;;;;8.95;61.01;99098.42;124677;1111;23030;-57
2021/03/13 09:52:28;;;;;;;1.43;0.30;;;;;;;8.92;60.85;99096.63;124899;1111;22996;-56
2021/03/13 09:55:06;;;;;;;4.73;0.40;;;;;;;8.88;60.52;99094.08;124675;1111;23018;-57
2021/03/13 09:57:37;;;;;;;1.53;0.40;;;;;;;8.89;61.21;99090.05;124628;1110;23068;-58
2021/03/13 10:00:11;;;;;;;3.10;0.40;;;;;;;8.91;60.48;99103.46;124746;1110;23397;-59
2021/03/13 10:02:41;;;;;;;3.00;0.40;;;;;;;8.92;60.30;99089.04;124716;1112;26399;-59
2021/03/13 10:05:16;;;;;;;4.37;0.40;;;;;;;8.95;60.76;99090.84;124680;1112;23033;-59
2021/03/13 10:07:47;;;;;;;3.37;0.50;;;;;;;9.02;60.86;99086.08;124660;1112;27304;-57
2021/03/13 10:10:18;;;;;;;5.00;0.50;;;;;;;9.05;60.81;99087.85;124713;1112;23079;-57
2021/03/13 10:12:49;;;;;;;2.70;0.47;;;;;;;9.11;60.54;99083.08;124639;1112;23073;-57
2021/03/13 10:15:24;;;;;;;2.80;0.50;;;;;;;9.15;60.66;99076.02;124599;1111;23023;-59
2021/03/13 10:18:00;;;;;;;2.60;0.50;;;;;;;9.18;60.66;99072.26;124736;1111;24380;-56
2021/03/13 10:20:34;;;;;;;1.77;0.40;;;;;;;9.20;60.29;99077.33;124735;1112;23222;-57
2021/03/13 10:23:07;;;;;;;2.17;0.70;;;;;;;9.21;60.47;99079.60;124656;1110;23015;-55
2021/03/13 10:25:37;;;;;;;3.57;0.70;;;;;;;9.22;60.70;99080.38;124591;1112;26450;-57
2021/03/13 10:28:09;;;;;;;3.50;0.83;;;;;;;9.23;60.34;99073.56;124486;1112;23061;-58
2021/03/13 10:30:40;;;;;;;6.60;0.60;;;;;;;9.25;59.63;99065.47;124804;1111;23020;-57
2021/03/13 10:33:10;;;;;;;4.60;0.57;;;;;;;9.27;59.71;99062.95;124531;1111;23019;-57
2021/03/13 10:35:40;;;;;;;3.47;0.40;;;;;;;9.29;60.68;99063.95;124817;1111;23080;-57
2021/03/13 10:38:19;;;;;;;3.12;0.47;;;;;;;9.35;60.95;99052.86;124650;1110;23110;-56
2021/03/13 10:40:50;;;;;;;4.00;0.80;;;;;;;9.41;60.09;99048.07;124764;1110;23070;-57
2021/03/13 10:43:31;;;;;;;2.85;0.50;;;;;;;9.43;60.23;99048.33;124739;1110;23129;-57
2021/03/13 10:46:16;;;;;;;1.93;0.43;;;;;;;9.42;60.75;99049.58;124800;1111;23033;-56
2021/03/13 10:49:07;;;;;;;5.87;0.73;;;;;;;9.43;60.31;99042.76;124927;1110;23042;-57
2021/03/13 10:51:42;;;;;;;4.03;0.80;;;;;;;9.43;60.41;99037.95;124637;1110;23083;-57
2021/03/13 10:54:24;;;;;;;3.57;0.57;;;;;;;9.45;61.39;99023.52;124637;1112;23205;-57
2021/03/13 10:56:55;;;;;;;3.40;0.60;;;;;;;9.46;60.90;99016.67;124838;1112;26014;-60
2021/03/13 10:59:33;;;;;;;4.63;0.70;;;;;;;9.47;60.28;99018.21;124788;1112;27759;-57
2021/03/13 11:02:03;;;;;;;5.67;0.77;;;;;;;9.44;60.61;99019.20;124750;1112;23107;-56
2021/03/13 11:04:34;;;;;;;5.08;0.47;;;;;;;9.44;60.63;99017.18;124505;1112;23017;-57
2021/03/13 11:07:05;;;;;;;3.27;0.63;;;;;;;9.43;60.71;99007.31;124323;1111;23077;-60
2021/03/13 11:09:35;;;;;;;2.37;0.60;;;;;;;9.43;60.63;99012.89;124400;1112;24611;-57
2021/03/13 11:12:05;;;;;;;1.97;0.60;;;;;;;9.43;60.73;99004.53;124467;1112;23071;-57
2021/03/13 11:14:39;;;;;;;3.90;0.53;;;;;;;9.45;61.22;99004.02;124482;1111;25969;-58
2021/03/13 11:17:09;;;;;;;3.30;0.67;;;;;;;9.48;60.58;98991.86;124329;1111;23178;-59
2021/03/13 11:19:38;;;;;;;7.67;0.82;;;;;;;9.49;60.32;98983.02;124264;1111;23083;-59
2021/03/13 11:22:10;;;;;;;5.95;0.85;;;;;;;9.50;61.19;98987.31;124277;1112;23083;-60
2021/03/13 11:24:40;;;;;;;3.80;0.80;;;;;;;9.53;60.47;98979.98;124508;1112;23016;-59
2021/03/13 11:27:09;;;;;;;5.07;0.70;;;;;;;9.55;60.77;98969.87;124578;1111;23107;-58
2021/03/13 11:29:38;;;;;;;4.37;0.50;;;;;;;9.57;60.51;98975.70;124400;1111;23084;-58
2021/03/13 11:32:17;;;;;;;2.22;0.30;;;;;;;9.63;61.28;98961.77;126067;1110;27759;-60
2021/03/13 11:34:47;;;;;;;6.70;0.80;;;;;;;9.65;60.67;98953.67;124395;1111;22985;-59
2021/03/13 11:37:20;;;;;;;6.23;0.80;;;;;;;9.67;60.89;98962.28;124917;1111;23043;-60
2021/03/13 11:39:53;;;;;;;3.60;0.70;;;;;;;9.70;61.20;98955.72;125118;1111;26511;-60
2021/03/13 11:42:27;;;;;;;5.20;0.63;;;;;;;9.73;60.15;98957.48;124682;1111;24672;-60
2021/03/13 11:44:59;;;;;;;4.83;0.90;;;;;;;9.75;60.55;98960.52;125834;1112;23921;-60
2021/03/13 11:47:29;;;;;;;6.47;0.80;;;;;;;9.76;60.64;98953.70;124620;1111;23329;-59
2021/03/13 11:49:58;;;;;;;3.00;0.50;;;;;;;9.75;60.33;98944.57;124529;1111;23419;-60
2021/03/13 11:52:27;;;;;;;4.33;0.67;;;;;;;9.75;60.68;98935.44;124426;1112;23267;-61
2021/03/13 11:54:56;;;;;;;2.57;0.63;;;;;;;9.74;60.32;98936.72;124337;1111;23043;-60
2021/03/13 11:57:26;;;;;;;4.50;0.73;;;;;;;9.72;59.95;98948.35;124483;1112;27374;-58